sensor_id;sensor_type;location;lat;lon;timestamp;P1;durP1;ratioP1;P2;durP2;ratioP2
15500;SDS011;7852;52.228;5.990;2023-07-13T00:03:48;6.8;;;6.3;;
15500;SDS011;7852;52.228;5.990;2023-07-13T00:03:48;7.3;;;6.6;;
15500;SDS011;7852;52.228;5.990;2023-07-13T00:03:48;6.4;;;6.1;;
15500;SDS011;7852;52.228;5.990;2023-07-13T00:04:30;6.6;;;6.2;;
15500;SDS011;7852;52.228;5.990;2023-07-13T00:05:30;7.2;;;6.7;;
15500;SDS011;7852;52.228;5.990;2023-07-13T00:06:30;7;;;6.6;;
15500;SDS011;7852;52.228;5.990;2023-07-13T00:07:30;6.8;;;6.6;;
15500;SDS011;7852;52.228;5.990;2023-07-13T00:08:30;7.1;;;6.8;;
15500;SDS011;7852;52.228;5.990;2023-07-13T00:09:30;7;;;6.6;;
15500;SDS011;7852;52.228;5.990;2023-07-13T00:10:30;7.8;;;7.1;;
15500;SDS011;7852;52.228;5.990;2023-07-13T00:11:30;6.8;;;6.6;;
15500;SDS011;7852;52.228;5.990;2023-07-13T00:12:31;7;;;6.7;;
15500;SDS011;7852;52.228;5.990;2023-07-13T00:13:30;7.9;;;7.2;;
15500;SDS011;7852;52.228;5.990;2023-07-13T00:14:30;7.3;;;6.8;;
15500;SDS011;7852;52.228;5.990;2023-07-13T00:15:30;7.4;;;7.1;;
15500;SDS011;7852;52.228;5.990;2023-07-13T00:16:30;8.7;;;7.7;;
15500;SDS011;7852;52.228;5.990;2023-07-13T00:17:30;7.2;;;7;;
15500;SDS011;7852;52.228;5.990;2023-07-13T00:18:30;7.7;;;7.4;;
15500;SDS011;7852;52.228;5.990;2023-07-13T00:19:30;7.8;;;7.4;;
15500;SDS011;7852;52.228;5.990;2023-07-13T00:20:30;7.4;;;7.1;;
15500;SDS011;7852;52.228;5.990;2023-07-13T00:21:30;7.2;;;6.9;;
15500;SDS011;7852;52.228;5.990;2023-07-13T00:22:30;7.2;;;6.9;;
15500;SDS011;7852;52.228;5.990;2023-07-13T00:23:30;8.2;;;7.6;;
15500;SDS011;7852;52.228;5.990;2023-07-13T00:24:30;7.4;;;7;;
15500;SDS011;7852;52.228;5.990;2023-07-13T00:25:30;8.5;;;7.7;;
15500;SDS011;7852;52.228;5.990;2023-07-13T00:26:30;7.1;;;6.7;;
15500;SDS011;7852;52.228;5.990;2023-07-13T00:27:30;6.4;;;6.2;;
15500;SDS011;7852;52.228;5.990;2023-07-13T00:28:30;7.1;;;6.7;;
15500;SDS011;7852;52.228;5.990;2023-07-13T00:29:30;6.6;;;6.4;;
15500;SDS011;7852;52.228;5.990;2023-07-13T00:30:30;6.3;;;6.1;;
15500;SDS011;7852;52.228;5.990;2023-07-13T00:31:30;7.4;;;6.9;;
15500;SDS011;7852;52.228;5.990;2023-07-13T00:32:30;6.6;;;6.1;;
15500;SDS011;7852;52.228;5.990;2023-07-13T00:33:30;5.8;;;5.6;;
15500;SDS011;7852;52.228;5.990;2023-07-13T00:34:30;6.5;;;5.9;;
15500;SDS011;7852;52.228;5.990;2023-07-13T00:35:30;5.9;;;5.7;;
15500;SDS011;7852;52.228;5.990;2023-07-13T00:36:30;6.3;;;6;;
15500;SDS011;7852;52.228;5.990;2023-07-13T00:37:30;6.3;;;5.7;;
15500;SDS011;7852;52.228;5.990;2023-07-13T00:38:30;5.8;;;5.6;;
15500;SDS011;7852;52.228;5.990;2023-07-13T00:39:30;5.4;;;5.2;;
15500;SDS011;7852;52.228;5.990;2023-07-13T00:40:30;6.4;;;5.4;;
15500;SDS011;7852;52.228;5.990;2023-07-13T00:41:30;5.3;;;5.1;;
15500;SDS011;7852;52.228;5.990;2023-07-13T00:42:30;6.1;;;5.8;;
15500;SDS011;7852;52.228;5.990;2023-07-13T00:43:30;5.5;;;5.2;;
15500;SDS011;7852;52.228;5.990;2023-07-13T00:44:30;6.4;;;5.8;;
15500;SDS011;7852;52.228;5.990;2023-07-13T00:46:30;6;;;5.5;;
15500;SDS011;7852;52.228;5.990;2023-07-13T00:47:30;5.4;;;5;;
15500;SDS011;7852;52.228;5.990;2023-07-13T00:48:31;6.1;;;5.8;;
15500;SDS011;7852;52.228;5.990;2023-07-13T00:49:30;5.5;;;5.2;;
15500;SDS011;7852;52.228;5.990;2023-07-13T00:50:30;5.7;;;5.2;;
15500;SDS011;7852;52.228;5.990;2023-07-13T00:51:31;4.7;;;4.5;;
15500;SDS011;7852;52.228;5.990;2023-07-13T00:52:30;6.5;;;6.1;;
15500;SDS011;7852;52.228;5.990;2023-07-13T00:53:30;5.6;;;5.2;;
15500;SDS011;7852;52.228;5.990;2023-07-13T00:54:35;6.2;;;5.7;;
15500;SDS011;7852;52.228;5.990;2023-07-13T00:55:30;6.3;;;5.8;;
15500;SDS011;7852;52.228;5.990;2023-07-13T00:56:30;5;;;4.8;;
15500;SDS011;7852;52.228;5.990;2023-07-13T00:57:30;6;;;5.6;;
15500;SDS011;7852;52.228;5.990;2023-07-13T00:58:30;5.7;;;5.2;;
15500;SDS011;7852;52.228;5.990;2023-07-13T00:59:30;6.1;;;5.6;;
15500;SDS011;7852;52.228;5.990;2023-07-13T01:00:30;6.2;;;5.7;;
15500;SDS011;7852;52.228;5.990;2023-07-13T01:01:30;6.1;;;5.5;;
15500;SDS011;7852;52.228;5.990;2023-07-13T01:02:30;6.4;;;5.9;;
15500;SDS011;7852;52.228;5.990;2023-07-13T01:03:30;5.9;;;5.4;;
15500;SDS011;7852;52.228;5.990;2023-07-13T01:04:30;7.6;;;5.1;;
15500;SDS011;7852;52.228;5.990;2023-07-13T01:05:30;6.8;;;5.5;;
15500;SDS011;7852;52.228;5.990;2023-07-13T01:06:30;5.5;;;5.2;;
15500;SDS011;7852;52.228;5.990;2023-07-13T01:07:30;5.7;;;5.4;;
15500;SDS011;7852;52.228;5.990;2023-07-13T01:08:30;5.2;;;5;;
15500;SDS011;7852;52.228;5.990;2023-07-13T01:09:30;5.9;;;5.5;;
15500;SDS011;7852;52.228;5.990;2023-07-13T01:10:30;5.4;;;5.1;;
15500;SDS011;7852;52.228;5.990;2023-07-13T01:11:30;6.2;;;5.7;;
15500;SDS011;7852;52.228;5.990;2023-07-13T01:12:30;5.7;;;5.4;;
15500;SDS011;7852;52.228;5.990;2023-07-13T01:13:30;10.4;;;5.8;;
15500;SDS011;7852;52.228;5.990;2023-07-13T01:14:30;5.2;;;4.9;;
15500;SDS011;7852;52.228;5.990;2023-07-13T01:15:33;5.6;;;5.3;;
15500;SDS011;7852;52.228;5.990;2023-07-13T01:16:30;5.8;;;5.6;;
15500;SDS011;7852;52.228;5.990;2023-07-13T01:17:30;5.7;;;5.3;;
15500;SDS011;7852;52.228;5.990;2023-07-13T01:18:30;5.3;;;5.1;;
15500;SDS011;7852;52.228;5.990;2023-07-13T01:19:33;5.3;;;5.1;;
15500;SDS011;7852;52.228;5.990;2023-07-13T01:20:30;6.7;;;5.7;;
15500;SDS011;7852;52.228;5.990;2023-07-13T01:21:32;5.4;;;5.2;;
15500;SDS011;7852;52.228;5.990;2023-07-13T01:22:30;6.6;;;6.1;;
15500;SDS011;7852;52.228;5.990;2023-07-13T01:23:30;6.1;;;5.7;;
15500;SDS011;7852;52.228;5.990;2023-07-13T01:24:30;5.7;;;5.2;;
15500;SDS011;7852;52.228;5.990;2023-07-13T01:25:30;5.7;;;5.4;;
15500;SDS011;7852;52.228;5.990;2023-07-13T01:26:30;5.5;;;5;;
15500;SDS011;7852;52.228;5.990;2023-07-13T01:27:30;5.6;;;5.2;;
15500;SDS011;7852;52.228;5.990;2023-07-13T01:28:30;5.7;;;5.4;;
15500;SDS011;7852;52.228;5.990;2023-07-13T01:29:30;6;;;5.5;;
15500;SDS011;7852;52.228;5.990;2023-07-13T01:30:30;5.5;;;5.3;;
15500;SDS011;7852;52.228;5.990;2023-07-13T01:31:30;7.8;;;5.9;;
15500;SDS011;7852;52.228;5.990;2023-07-13T01:32:30;6.2;;;5.8;;
15500;SDS011;7852;52.228;5.990;2023-07-13T01:33:30;5.1;;;4.9;;
15500;SDS011;7852;52.228;5.990;2023-07-13T01:34:30;5.2;;;5;;
15500;SDS011;7852;52.228;5.990;2023-07-13T01:35:30;5.8;;;5.6;;
15500;SDS011;7852;52.228;5.990;2023-07-13T01:36:30;5.8;;;5.3;;
15500;SDS011;7852;52.228;5.990;2023-07-13T01:37:30;6.5;;;5.9;;
15500;SDS011;7852;52.228;5.990;2023-07-13T01:38:30;6.1;;;5.8;;
15500;SDS011;7852;52.228;5.990;2023-07-13T01:39:30;6;;;5.7;;
15500;SDS011;7852;52.228;5.990;2023-07-13T01:40:30;5.7;;;5.5;;
15500;SDS011;7852;52.228;5.990;2023-07-13T01:41:30;5.6;;;5.2;;
15500;SDS011;7852;52.228;5.990;2023-07-13T01:42:30;5.6;;;5.4;;
15500;SDS011;7852;52.228;5.990;2023-07-13T01:43:30;6.1;;;5.8;;
15500;SDS011;7852;52.228;5.990;2023-07-13T01:44:30;5.4;;;5.2;;
15500;SDS011;7852;52.228;5.990;2023-07-13T01:45:30;6.4;;;6.2;;
15500;SDS011;7852;52.228;5.990;2023-07-13T01:46:30;6.5;;;6.1;;
15500;SDS011;7852;52.228;5.990;2023-07-13T01:47:30;6;;;5.7;;
15500;SDS011;7852;52.228;5.990;2023-07-13T01:48:30;6.5;;;5.9;;
15500;SDS011;7852;52.228;5.990;2023-07-13T01:49:30;7.1;;;6.5;;
15500;SDS011;7852;52.228;5.990;2023-07-13T01:50:30;6.6;;;6;;
15500;SDS011;7852;52.228;5.990;2023-07-13T01:51:30;7;;;6.6;;
15500;SDS011;7852;52.228;5.990;2023-07-13T01:52:30;6.8;;;6.4;;
15500;SDS011;7852;52.228;5.990;2023-07-13T01:53:30;7.3;;;6.9;;
15500;SDS011;7852;52.228;5.990;2023-07-13T01:54:30;6.3;;;6;;
15500;SDS011;7852;52.228;5.990;2023-07-13T01:55:30;7;;;6.6;;
15500;SDS011;7852;52.228;5.990;2023-07-13T01:56:30;6.3;;;6.1;;
15500;SDS011;7852;52.228;5.990;2023-07-13T01:57:30;7.1;;;6.6;;
15500;SDS011;7852;52.228;5.990;2023-07-13T01:58:30;6.9;;;6.5;;
15500;SDS011;7852;52.228;5.990;2023-07-13T01:59:30;6.4;;;6.1;;
15500;SDS011;7852;52.228;5.990;2023-07-13T02:00:30;6.9;;;6.6;;
15500;SDS011;7852;52.228;5.990;2023-07-13T02:01:30;5.9;;;5.7;;
15500;SDS011;7852;52.228;5.990;2023-07-13T02:02:30;5.9;;;5.7;;
15500;SDS011;7852;52.228;5.990;2023-07-13T02:03:30;7.1;;;6.4;;
15500;SDS011;7852;52.228;5.990;2023-07-13T02:04:30;6.8;;;6.3;;
15500;SDS011;7852;52.228;5.990;2023-07-13T02:05:30;6.2;;;5.9;;
15500;SDS011;7852;52.228;5.990;2023-07-13T02:06:30;6;;;5.7;;
15500;SDS011;7852;52.228;5.990;2023-07-13T02:07:30;7.7;;;7;;
15500;SDS011;7852;52.228;5.990;2023-07-13T02:08:30;5.9;;;5.5;;
15500;SDS011;7852;52.228;5.990;2023-07-13T02:09:30;6;;;5.7;;
15500;SDS011;7852;52.228;5.990;2023-07-13T02:10:30;5.9;;;5.7;;
15500;SDS011;7852;52.228;5.990;2023-07-13T02:11:30;7.2;;;5.9;;
15500;SDS011;7852;52.228;5.990;2023-07-13T02:12:30;7;;;6.4;;
15500;SDS011;7852;52.228;5.990;2023-07-13T02:13:30;6.1;;;5.8;;
15500;SDS011;7852;52.228;5.990;2023-07-13T02:14:30;6.5;;;6.1;;
15500;SDS011;7852;52.228;5.990;2023-07-13T02:15:30;6.6;;;6.2;;
15500;SDS011;7852;52.228;5.990;2023-07-13T02:16:30;7.5;;;6.9;;
15500;SDS011;7852;52.228;5.990;2023-07-13T02:17:30;6.1;;;5.8;;
15500;SDS011;7852;52.228;5.990;2023-07-13T02:18:30;8.1;;;6.1;;
15500;SDS011;7852;52.228;5.990;2023-07-13T02:19:30;6.2;;;5.7;;
15500;SDS011;7852;52.228;5.990;2023-07-13T02:20:30;6.4;;;6.2;;
15500;SDS011;7852;52.228;5.990;2023-07-13T02:21:30;6.5;;;6.1;;
15500;SDS011;7852;52.228;5.990;2023-07-13T02:22:30;6.6;;;6.3;;
15500;SDS011;7852;52.228;5.990;2023-07-13T02:23:30;6.4;;;6.1;;
15500;SDS011;7852;52.228;5.990;2023-07-13T02:24:30;6.6;;;6;;
15500;SDS011;7852;52.228;5.990;2023-07-13T02:25:30;6.6;;;6.1;;
15500;SDS011;7852;52.228;5.990;2023-07-13T02:26:30;6.3;;;6;;
15500;SDS011;7852;52.228;5.990;2023-07-13T02:27:30;6.1;;;5.8;;
15500;SDS011;7852;52.228;5.990;2023-07-13T02:28:30;6.4;;;6;;
15500;SDS011;7852;52.228;5.990;2023-07-13T02:29:30;7.3;;;6.6;;
15500;SDS011;7852;52.228;5.990;2023-07-13T02:30:30;6.8;;;6.3;;
15500;SDS011;7852;52.228;5.990;2023-07-13T02:31:30;6.5;;;6.2;;
15500;SDS011;7852;52.228;5.990;2023-07-13T02:32:30;6.5;;;5.9;;
15500;SDS011;7852;52.228;5.990;2023-07-13T02:33:30;6.3;;;6;;
15500;SDS011;7852;52.228;5.990;2023-07-13T02:34:30;5.9;;;5.7;;
15500;SDS011;7852;52.228;5.990;2023-07-13T02:35:30;8.4;;;6.4;;
15500;SDS011;7852;52.228;5.990;2023-07-13T02:36:30;6.5;;;6;;
15500;SDS011;7852;52.228;5.990;2023-07-13T02:37:30;7.1;;;6.5;;
15500;SDS011;7852;52.228;5.990;2023-07-13T02:38:30;6.3;;;6;;
15500;SDS011;7852;52.228;5.990;2023-07-13T02:39:30;7.2;;;6.6;;
15500;SDS011;7852;52.228;5.990;2023-07-13T02:40:30;6.5;;;6.1;;
15500;SDS011;7852;52.228;5.990;2023-07-13T02:41:30;6.4;;;5.9;;
15500;SDS011;7852;52.228;5.990;2023-07-13T02:42:30;6.9;;;6.5;;
15500;SDS011;7852;52.228;5.990;2023-07-13T02:43:30;6.6;;;6.2;;
15500;SDS011;7852;52.228;5.990;2023-07-13T02:44:30;6.6;;;6.2;;
15500;SDS011;7852;52.228;5.990;2023-07-13T02:45:30;6.5;;;6.2;;
15500;SDS011;7852;52.228;5.990;2023-07-13T02:46:30;7;;;6.4;;
15500;SDS011;7852;52.228;5.990;2023-07-13T02:47:31;7.1;;;5.9;;
15500;SDS011;7852;52.228;5.990;2023-07-13T02:48:30;6.3;;;6;;
15500;SDS011;7852;52.228;5.990;2023-07-13T02:49:30;6.1;;;5.6;;
15500;SDS011;7852;52.228;5.990;2023-07-13T02:50:30;6.4;;;6;;
15500;SDS011;7852;52.228;5.990;2023-07-13T02:51:30;5.7;;;5.4;;
15500;SDS011;7852;52.228;5.990;2023-07-13T02:52:30;5.9;;;5.6;;
15500;SDS011;7852;52.228;5.990;2023-07-13T02:53:30;6;;;5.7;;
15500;SDS011;7852;52.228;5.990;2023-07-13T02:54:30;7.2;;;6.7;;
15500;SDS011;7852;52.228;5.990;2023-07-13T02:55:30;6.5;;;6.2;;
15500;SDS011;7852;52.228;5.990;2023-07-13T02:56:31;6.1;;;5.9;;
15500;SDS011;7852;52.228;5.990;2023-07-13T02:57:30;5.9;;;5.7;;
15500;SDS011;7852;52.228;5.990;2023-07-13T02:58:30;6.3;;;5.9;;
15500;SDS011;7852;52.228;5.990;2023-07-13T02:59:30;7;;;6.6;;
15500;SDS011;7852;52.228;5.990;2023-07-13T03:00:30;6.4;;;5.8;;
15500;SDS011;7852;52.228;5.990;2023-07-13T03:01:30;6.3;;;6.1;;
15500;SDS011;7852;52.228;5.990;2023-07-13T03:02:30;7;;;6.2;;
15500;SDS011;7852;52.228;5.990;2023-07-13T03:03:30;6.6;;;6.3;;
15500;SDS011;7852;52.228;5.990;2023-07-13T03:04:30;6.8;;;6.4;;
15500;SDS011;7852;52.228;5.990;2023-07-13T03:05:30;6.1;;;5.8;;
15500;SDS011;7852;52.228;5.990;2023-07-13T03:06:30;6.1;;;5.8;;
15500;SDS011;7852;52.228;5.990;2023-07-13T03:07:30;6.2;;;6;;
15500;SDS011;7852;52.228;5.990;2023-07-13T03:08:30;5.3;;;5.1;;
15500;SDS011;7852;52.228;5.990;2023-07-13T03:09:30;5.8;;;5.5;;
15500;SDS011;7852;52.228;5.990;2023-07-13T03:10:30;6.4;;;6;;
15500;SDS011;7852;52.228;5.990;2023-07-13T03:11:30;6.3;;;6;;
15500;SDS011;7852;52.228;5.990;2023-07-13T03:12:30;11.3;;;6.2;;
15500;SDS011;7852;52.228;5.990;2023-07-13T03:13:30;6;;;5.8;;
15500;SDS011;7852;52.228;5.990;2023-07-13T03:14:30;8.5;;;6.2;;
15500;SDS011;7852;52.228;5.990;2023-07-13T03:15:30;6.1;;;5.9;;
15500;SDS011;7852;52.228;5.990;2023-07-13T03:16:30;6.8;;;6.3;;
15500;SDS011;7852;52.228;5.990;2023-07-13T03:17:30;6.8;;;6.2;;
15500;SDS011;7852;52.228;5.990;2023-07-13T03:18:30;6.2;;;5.8;;
15500;SDS011;7852;52.228;5.990;2023-07-13T03:19:30;7.2;;;6.5;;
15500;SDS011;7852;52.228;5.990;2023-07-13T03:20:31;6;;;5.8;;
15500;SDS011;7852;52.228;5.990;2023-07-13T03:21:30;5.5;;;5.3;;
15500;SDS011;7852;52.228;5.990;2023-07-13T03:22:30;6.6;;;6.3;;
15500;SDS011;7852;52.228;5.990;2023-07-13T03:23:30;6.2;;;5.8;;
15500;SDS011;7852;52.228;5.990;2023-07-13T03:24:31;5.8;;;5.6;;
15500;SDS011;7852;52.228;5.990;2023-07-13T03:25:30;6.7;;;6.3;;
15500;SDS011;7852;52.228;5.990;2023-07-13T03:26:30;6;;;5.5;;
15500;SDS011;7852;52.228;5.990;2023-07-13T03:27:30;6.5;;;5.9;;
15500;SDS011;7852;52.228;5.990;2023-07-13T03:28:30;6.8;;;6.4;;
15500;SDS011;7852;52.228;5.990;2023-07-13T03:29:30;5.8;;;5.6;;
15500;SDS011;7852;52.228;5.990;2023-07-13T03:30:30;6.8;;;6.1;;
15500;SDS011;7852;52.228;5.990;2023-07-13T03:31:33;5.9;;;5.7;;
15500;SDS011;7852;52.228;5.990;2023-07-13T03:32:30;5.9;;;5.6;;
15500;SDS011;7852;52.228;5.990;2023-07-13T03:33:30;6.5;;;6;;
15500;SDS011;7852;52.228;5.990;2023-07-13T03:34:30;6.5;;;6.1;;
15500;SDS011;7852;52.228;5.990;2023-07-13T03:35:30;6.2;;;5.7;;
15500;SDS011;7852;52.228;5.990;2023-07-13T03:36:30;6.5;;;6;;
15500;SDS011;7852;52.228;5.990;2023-07-13T03:37:30;7.2;;;6.6;;
15500;SDS011;7852;52.228;5.990;2023-07-13T03:38:30;6.6;;;6;;
15500;SDS011;7852;52.228;5.990;2023-07-13T03:39:30;5.7;;;5.3;;
15500;SDS011;7852;52.228;5.990;2023-07-13T03:40:30;8.3;;;5.8;;
15500;SDS011;7852;52.228;5.990;2023-07-13T03:41:30;7.4;;;6.8;;
15500;SDS011;7852;52.228;5.990;2023-07-13T03:42:30;6.4;;;6.1;;
15500;SDS011;7852;52.228;5.990;2023-07-13T03:43:30;6.1;;;5.8;;
15500;SDS011;7852;52.228;5.990;2023-07-13T03:44:30;6.1;;;5.8;;
15500;SDS011;7852;52.228;5.990;2023-07-13T03:45:30;8;;;5.7;;
15500;SDS011;7852;52.228;5.990;2023-07-13T03:46:30;6;;;5.8;;
15500;SDS011;7852;52.228;5.990;2023-07-13T03:47:30;6.5;;;6.1;;
15500;SDS011;7852;52.228;5.990;2023-07-13T03:48:30;5.7;;;5.4;;
15500;SDS011;7852;52.228;5.990;2023-07-13T03:49:30;5.9;;;5.7;;
15500;SDS011;7852;52.228;5.990;2023-07-13T03:50:30;6.2;;;5.9;;
15500;SDS011;7852;52.228;5.990;2023-07-13T03:51:30;11.5;;;6;;
15500;SDS011;7852;52.228;5.990;2023-07-13T03:52:30;6.4;;;5.9;;
15500;SDS011;7852;52.228;5.990;2023-07-13T03:53:30;5.9;;;5.7;;
15500;SDS011;7852;52.228;5.990;2023-07-13T03:54:30;5.9;;;5.5;;
15500;SDS011;7852;52.228;5.990;2023-07-13T03:55:30;6.5;;;5.9;;
15500;SDS011;7852;52.228;5.990;2023-07-13T03:56:30;5.8;;;5.5;;
15500;SDS011;7852;52.228;5.990;2023-07-13T03:57:30;5.9;;;5.7;;
15500;SDS011;7852;52.228;5.990;2023-07-13T03:58:31;6.4;;;6.2;;
15500;SDS011;7852;52.228;5.990;2023-07-13T03:59:30;6.1;;;5.8;;
15500;SDS011;7852;52.228;5.990;2023-07-13T04:00:30;6.7;;;6.1;;
15500;SDS011;7852;52.228;5.990;2023-07-13T04:01:30;7.3;;;6.2;;
15500;SDS011;7852;52.228;5.990;2023-07-13T04:02:30;5.5;;;5.3;;
15500;SDS011;7852;52.228;5.990;2023-07-13T04:03:30;5.9;;;5.6;;
15500;SDS011;7852;52.228;5.990;2023-07-13T04:04:30;5.6;;;5.4;;
15500;SDS011;7852;52.228;5.990;2023-07-13T04:05:30;6.8;;;6.2;;
15500;SDS011;7852;52.228;5.990;2023-07-13T04:06:30;8.6;;;5.9;;
15500;SDS011;7852;52.228;5.990;2023-07-13T04:07:30;7.6;;;6.1;;
15500;SDS011;7852;52.228;5.990;2023-07-13T04:08:31;5.6;;;5.3;;
15500;SDS011;7852;52.228;5.990;2023-07-13T04:09:30;5.6;;;5.4;;
15500;SDS011;7852;52.228;5.990;2023-07-13T04:10:30;5.5;;;5.2;;
15500;SDS011;7852;52.228;5.990;2023-07-13T04:11:30;6.4;;;6.1;;
15500;SDS011;7852;52.228;5.990;2023-07-13T04:12:30;6.7;;;6.3;;
15500;SDS011;7852;52.228;5.990;2023-07-13T04:13:30;6.2;;;5.7;;
15500;SDS011;7852;52.228;5.990;2023-07-13T04:14:30;8.3;;;6.2;;
15500;SDS011;7852;52.228;5.990;2023-07-13T04:15:31;6.3;;;5.8;;
15500;SDS011;7852;52.228;5.990;2023-07-13T04:16:30;7.6;;;5.7;;
15500;SDS011;7852;52.228;5.990;2023-07-13T04:17:30;12.6;;;5.8;;
15500;SDS011;7852;52.228;5.990;2023-07-13T04:18:30;6;;;5.6;;
15500;SDS011;7852;52.228;5.990;2023-07-13T04:19:30;7.2;;;5.7;;
15500;SDS011;7852;52.228;5.990;2023-07-13T04:20:30;5.9;;;5.5;;
15500;SDS011;7852;52.228;5.990;2023-07-13T04:21:30;7.1;;;6.4;;
15500;SDS011;7852;52.228;5.990;2023-07-13T04:22:30;6.5;;;6;;
15500;SDS011;7852;52.228;5.990;2023-07-13T04:23:30;5.7;;;5.5;;
15500;SDS011;7852;52.228;5.990;2023-07-13T04:24:30;6;;;5.7;;
15500;SDS011;7852;52.228;5.990;2023-07-13T04:25:30;8.3;;;6.3;;
15500;SDS011;7852;52.228;5.990;2023-07-13T04:26:30;6.8;;;6.3;;
15500;SDS011;7852;52.228;5.990;2023-07-13T04:27:30;6;;;5.7;;
15500;SDS011;7852;52.228;5.990;2023-07-13T04:28:30;6;;;5.7;;
15500;SDS011;7852;52.228;5.990;2023-07-13T04:29:30;5.8;;;5.6;;
15500;SDS011;7852;52.228;5.990;2023-07-13T04:30:30;5.5;;;5.3;;
15500;SDS011;7852;52.228;5.990;2023-07-13T04:31:30;6.4;;;5.8;;
15500;SDS011;7852;52.228;5.990;2023-07-13T04:32:30;6.4;;;5.6;;
15500;SDS011;7852;52.228;5.990;2023-07-13T04:33:30;6;;;5.7;;
15500;SDS011;7852;52.228;5.990;2023-07-13T04:34:30;5.8;;;5.4;;
15500;SDS011;7852;52.228;5.990;2023-07-13T04:35:30;16.1;;;6.5;;
15500;SDS011;7852;52.228;5.990;2023-07-13T04:36:30;7.5;;;6.5;;
15500;SDS011;7852;52.228;5.990;2023-07-13T04:37:30;5.9;;;5.3;;
15500;SDS011;7852;52.228;5.990;2023-07-13T04:38:30;6.2;;;5.8;;
15500;SDS011;7852;52.228;5.990;2023-07-13T04:39:30;6.8;;;6.3;;
15500;SDS011;7852;52.228;5.990;2023-07-13T04:40:30;6.6;;;5.9;;
15500;SDS011;7852;52.228;5.990;2023-07-13T04:41:30;5.9;;;5.6;;
15500;SDS011;7852;52.228;5.990;2023-07-13T04:42:30;5.9;;;5.7;;
15500;SDS011;7852;52.228;5.990;2023-07-13T04:43:30;8.1;;;6;;
15500;SDS011;7852;52.228;5.990;2023-07-13T04:44:30;6.3;;;5.8;;
15500;SDS011;7852;52.228;5.990;2023-07-13T04:45:30;7.8;;;6.5;;
15500;SDS011;7852;52.228;5.990;2023-07-13T04:46:30;6.2;;;5.7;;
15500;SDS011;7852;52.228;5.990;2023-07-13T04:47:30;7;;;6.4;;
15500;SDS011;7852;52.228;5.990;2023-07-13T04:48:30;6.2;;;5.9;;
15500;SDS011;7852;52.228;5.990;2023-07-13T04:49:30;5.4;;;5.1;;
15500;SDS011;7852;52.228;5.990;2023-07-13T04:50:30;6;;;5.5;;
15500;SDS011;7852;52.228;5.990;2023-07-13T04:51:30;7;;;5.6;;
15500;SDS011;7852;52.228;5.990;2023-07-13T04:52:30;7.1;;;6.4;;
15500;SDS011;7852;52.228;5.990;2023-07-13T04:53:30;5.6;;;5.3;;
15500;SDS011;7852;52.228;5.990;2023-07-13T04:54:30;6.8;;;6.4;;
15500;SDS011;7852;52.228;5.990;2023-07-13T04:55:30;6.4;;;6;;
15500;SDS011;7852;52.228;5.990;2023-07-13T04:56:30;6.3;;;5.7;;
15500;SDS011;7852;52.228;5.990;2023-07-13T04:57:30;6.3;;;5.9;;
15500;SDS011;7852;52.228;5.990;2023-07-13T04:58:30;6.1;;;5.8;;
15500;SDS011;7852;52.228;5.990;2023-07-13T04:59:30;8.7;;;6.7;;
15500;SDS011;7852;52.228;5.990;2023-07-13T05:00:30;6.2;;;5.5;;
15500;SDS011;7852;52.228;5.990;2023-07-13T05:01:30;5.8;;;5.6;;
15500;SDS011;7852;52.228;5.990;2023-07-13T05:02:30;6.3;;;5.9;;
15500;SDS011;7852;52.228;5.990;2023-07-13T05:03:30;6.4;;;6;;
15500;SDS011;7852;52.228;5.990;2023-07-13T05:04:30;6.2;;;5.6;;
15500;SDS011;7852;52.228;5.990;2023-07-13T05:05:30;6.3;;;5.5;;
15500;SDS011;7852;52.228;5.990;2023-07-13T05:06:30;7.1;;;6.5;;
15500;SDS011;7852;52.228;5.990;2023-07-13T05:07:30;6.2;;;5.8;;
15500;SDS011;7852;52.228;5.990;2023-07-13T05:08:30;6.4;;;5.8;;
15500;SDS011;7852;52.228;5.990;2023-07-13T05:09:30;8.3;;;5.9;;
15500;SDS011;7852;52.228;5.990;2023-07-13T05:10:30;6;;;5.7;;
15500;SDS011;7852;52.228;5.990;2023-07-13T05:11:30;7.3;;;6.1;;
15500;SDS011;7852;52.228;5.990;2023-07-13T05:12:30;6.3;;;5.9;;
15500;SDS011;7852;52.228;5.990;2023-07-13T05:13:30;7.1;;;6.4;;
15500;SDS011;7852;52.228;5.990;2023-07-13T05:14:30;6.3;;;5.8;;
15500;SDS011;7852;52.228;5.990;2023-07-13T05:15:30;8.9;;;6.8;;
15500;SDS011;7852;52.228;5.990;2023-07-13T05:16:30;6.5;;;6;;
15500;SDS011;7852;52.228;5.990;2023-07-13T05:17:30;7.2;;;6.3;;
15500;SDS011;7852;52.228;5.990;2023-07-13T05:18:30;6.6;;;6.1;;
15500;SDS011;7852;52.228;5.990;2023-07-13T05:19:30;6.8;;;6.4;;
15500;SDS011;7852;52.228;5.990;2023-07-13T05:20:30;7.4;;;6.8;;
15500;SDS011;7852;52.228;5.990;2023-07-13T05:21:30;6.4;;;6;;
15500;SDS011;7852;52.228;5.990;2023-07-13T05:22:30;6.3;;;6;;
15500;SDS011;7852;52.228;5.990;2023-07-13T05:23:30;6.7;;;6.3;;
15500;SDS011;7852;52.228;5.990;2023-07-13T05:24:30;6.2;;;5.8;;
15500;SDS011;7852;52.228;5.990;2023-07-13T05:25:30;6.4;;;5.9;;
15500;SDS011;7852;52.228;5.990;2023-07-13T05:26:30;6.6;;;6.3;;
15500;SDS011;7852;52.228;5.990;2023-07-13T05:27:30;6.2;;;5.8;;
15500;SDS011;7852;52.228;5.990;2023-07-13T05:28:30;7.2;;;6;;
15500;SDS011;7852;52.228;5.990;2023-07-13T05:29:30;8.1;;;7.3;;
15500;SDS011;7852;52.228;5.990;2023-07-13T05:30:31;7;;;6.5;;
15500;SDS011;7852;52.228;5.990;2023-07-13T05:31:30;7.7;;;7.1;;
15500;SDS011;7852;52.228;5.990;2023-07-13T05:32:30;7.7;;;6.9;;
15500;SDS011;7852;52.228;5.990;2023-07-13T05:33:30;6.8;;;6.5;;
15500;SDS011;7852;52.228;5.990;2023-07-13T05:34:30;7.4;;;6.9;;
15500;SDS011;7852;52.228;5.990;2023-07-13T05:35:30;8.2;;;7.4;;
15500;SDS011;7852;52.228;5.990;2023-07-13T05:36:30;6.8;;;6.5;;
15500;SDS011;7852;52.228;5.990;2023-07-13T05:37:30;9.2;;;6.7;;
15500;SDS011;7852;52.228;5.990;2023-07-13T05:38:30;7;;;6.6;;
15500;SDS011;7852;52.228;5.990;2023-07-13T05:39:30;7.9;;;7.2;;
15500;SDS011;7852;52.228;5.990;2023-07-13T05:40:30;9.3;;;7.1;;
15500;SDS011;7852;52.228;5.990;2023-07-13T05:41:30;7.8;;;7.2;;
15500;SDS011;7852;52.228;5.990;2023-07-13T05:42:30;8.6;;;7.4;;
15500;SDS011;7852;52.228;5.990;2023-07-13T05:43:30;6.7;;;6.4;;
15500;SDS011;7852;52.228;5.990;2023-07-13T05:44:30;10.4;;;7.8;;
15500;SDS011;7852;52.228;5.990;2023-07-13T05:45:30;8.5;;;7.9;;
15500;SDS011;7852;52.228;5.990;2023-07-13T05:46:30;10.5;;;7.7;;
15500;SDS011;7852;52.228;5.990;2023-07-13T05:47:30;8.3;;;7.5;;
15500;SDS011;7852;52.228;5.990;2023-07-13T05:48:30;7.7;;;7.2;;
15500;SDS011;7852;52.228;5.990;2023-07-13T05:49:30;9;;;7.5;;
15500;SDS011;7852;52.228;5.990;2023-07-13T05:50:30;7.7;;;7;;
15500;SDS011;7852;52.228;5.990;2023-07-13T05:51:30;8.4;;;7.7;;
15500;SDS011;7852;52.228;5.990;2023-07-13T05:52:30;8.3;;;7.7;;
15500;SDS011;7852;52.228;5.990;2023-07-13T05:53:30;12.9;;;7.9;;
15500;SDS011;7852;52.228;5.990;2023-07-13T05:54:30;8.7;;;8.1;;
15500;SDS011;7852;52.228;5.990;2023-07-13T05:55:30;8.5;;;7.4;;
15500;SDS011;7852;52.228;5.990;2023-07-13T05:56:30;8.6;;;7.9;;
15500;SDS011;7852;52.228;5.990;2023-07-13T05:57:30;7.9;;;7.4;;
15500;SDS011;7852;52.228;5.990;2023-07-13T05:58:30;9.2;;;8.3;;
15500;SDS011;7852;52.228;5.990;2023-07-13T05:59:30;8.9;;;7.6;;
15500;SDS011;7852;52.228;5.990;2023-07-13T06:00:30;13.9;;;8.9;;
15500;SDS011;7852;52.228;5.990;2023-07-13T06:01:30;8.4;;;7.7;;
15500;SDS011;7852;52.228;5.990;2023-07-13T06:02:30;7.9;;;7.4;;
15500;SDS011;7852;52.228;5.990;2023-07-13T06:03:30;8.5;;;7.7;;
15500;SDS011;7852;52.228;5.990;2023-07-13T06:04:30;13.4;;;7.7;;
15500;SDS011;7852;52.228;5.990;2023-07-13T06:05:30;8.9;;;8.1;;
15500;SDS011;7852;52.228;5.990;2023-07-13T06:06:30;14.2;;;9.5;;
15500;SDS011;7852;52.228;5.990;2023-07-13T06:07:30;8.5;;;7.9;;
15500;SDS011;7852;52.228;5.990;2023-07-13T06:08:30;8.1;;;7.5;;
15500;SDS011;7852;52.228;5.990;2023-07-13T06:09:30;8.9;;;8.1;;
15500;SDS011;7852;52.228;5.990;2023-07-13T06:10:32;11.9;;;7.3;;
15500;SDS011;7852;52.228;5.990;2023-07-13T06:11:30;8.1;;;7.5;;
15500;SDS011;7852;52.228;5.990;2023-07-13T06:12:30;11;;;8.3;;
15500;SDS011;7852;52.228;5.990;2023-07-13T06:13:30;8.9;;;8.1;;
15500;SDS011;7852;52.228;5.990;2023-07-13T06:14:30;11;;;7.4;;
15500;SDS011;7852;52.228;5.990;2023-07-13T06:15:30;12.7;;;7.7;;
15500;SDS011;7852;52.228;5.990;2023-07-13T06:16:30;9.2;;;8.5;;
15500;SDS011;7852;52.228;5.990;2023-07-13T06:17:30;9.9;;;8.9;;
15500;SDS011;7852;52.228;5.990;2023-07-13T06:18:30;9.9;;;8;;
15500;SDS011;7852;52.228;5.990;2023-07-13T06:19:30;8.5;;;7.9;;
15500;SDS011;7852;52.228;5.990;2023-07-13T06:20:30;8.4;;;7.6;;
15500;SDS011;7852;52.228;5.990;2023-07-13T06:21:30;8.7;;;7.9;;
15500;SDS011;7852;52.228;5.990;2023-07-13T06:22:30;9;;;8.4;;